Time;durP1;ratioP1;P1;durP2;ratioP2;P2;SDS_P1;SDS_P2;PMS_P1;PMS_P2;Temp;Humidity;BMP_temperature;BMP_pressure;BME280_temperature;BME280_humidity;BME280_pressure;Samples;Min_cycle;Max_cycle;Signal;HPM_P1;HPM_P2
2021/08/09 00:02:18;;;;;;;8.03;3.90;;;;;;;17.17;60.04;100901.47;5063233;28;20181;-69
2021/08/09 00:04:44;;;;;;;4.07;3.67;;;;;;;17.17;60.05;100901.47;5061595;28;20169;-69
2021/08/09 00:07:10;;;;;;;4.47;4.07;;;;;;;17.14;60.61;100909.41;5061523;28;20177;-69
2021/08/09 00:09:36;;;;;;;10.90;4.10;;;;;;;17.11;60.32;100898.91;5061493;28;20288;-69
2021/08/09 00:12:01;;;;;;;4.30;3.90;;;;;;;17.32;59.72;100902.13;5062933;28;20943;-70
2021/08/09 00:14:27;;;;;;;5.13;4.20;;;;;;;17.18;60.47;100902.31;5061461;28;20181;-68
2021/08/09 00:16:53;;;;;;;5.23;4.73;;;;;;;17.44;59.98;100908.94;5070470;28;20201;-69
2021/08/09 00:19:18;;;;;;;5.67;4.83;;;;;;;17.40;59.57;100908.13;5064190;28;20268;-70
2021/08/09 00:21:43;;;;;;;7.80;4.57;;;;;;;17.47;59.82;100893.09;5064320;28;20192;-69
2021/08/09 00:24:09;;;;;;;6.80;4.50;;;;;;;16.83;61.18;100899.28;5061161;28;20355;-69
2021/08/09 00:26:34;;;;;;;6.20;4.07;;;;;;;17.29;59.96;100896.88;5061357;28;20230;-69
2021/08/09 00:29:00;;;;;;;9.97;5.30;;;;;;;17.12;60.24;100887.47;5061736;28;20228;-69
2021/08/09 00:31:26;;;;;;;6.40;4.43;;;;;;;16.57;61.78;100898.75;5064758;28;20200;-70
2021/08/09 00:33:51;;;;;;;6.43;4.43;;;;;;;17.07;60.98;100899.84;5061056;28;20180;-69
2021/08/09 00:36:17;;;;;;;4.33;3.93;;;;;;;17.27;60.16;100896.06;5061791;28;20450;-69
2021/08/09 00:38:42;;;;;;;7.07;5.00;;;;;;;17.34;60.13;100898.53;5067702;28;20571;-69
2021/08/09 00:41:08;;;;;;;6.50;4.60;;;;;;;17.26;59.61;100902.22;5067360;28;20528;-70
2021/08/09 00:43:33;;;;;;;5.73;5.20;;;;;;;16.99;60.30;100907.88;5061319;28;20177;-69
2021/08/09 00:46:01;;;;;;;5.40;4.27;;;;;;;17.06;60.79;100902.50;5060847;28;20181;-69
2021/08/09 00:48:26;;;;;;;5.70;4.83;;;;;;;17.03;60.77;100910.47;5061369;28;20173;-69
2021/08/09 00:50:52;;;;;;;4.80;4.07;;;;;;;17.19;60.31;100898.78;5063228;28;20459;-69
2021/08/09 00:53:17;;;;;;;4.70;4.07;;;;;;;17.16;60.20;100901.47;5061040;28;20173;-70
2021/08/09 00:55:44;;;;;;;4.73;3.90;;;;;;;17.10;60.52;100901.56;5060587;28;20268;-71
2021/08/09 00:58:10;;;;;;;5.33;4.30;;;;;;;17.05;60.67;100896.38;5060130;28;20169;-70
2021/08/09 01:00:36;;;;;;;5.03;4.10;;;;;;;17.36;59.81;100905.56;5066782;28;20716;-70
2021/08/09 01:03:01;;;;;;;4.50;4.10;;;;;;;17.56;59.47;100897.34;5076175;28;20471;-70
2021/08/09 01:05:26;;;;;;;4.70;4.30;;;;;;;17.48;59.67;100898.34;5061220;28;20232;-69
2021/08/09 01:08:13;;;;;;;5.00;4.50;;;;;;;17.74;58.86;100899.66;5080319;28;20435;-70
2021/08/09 01:10:52;;;;;;;5.20;4.10;;;;;;;17.05;61.13;100899.00;5073065;28;20239;-69
2021/08/09 01:13:25;;;;;;;4.90;4.40;;;;;;;17.63;59.56;100909.50;5061030;28;20451;-71
2021/08/09 01:15:54;;;;;;;4.83;4.20;;;;;;;17.36;60.49;100909.09;5065089;28;20703;-69
2021/08/09 01:18:21;;;;;;;7.00;4.70;;;;;;;17.46;60.05;100905.38;5079581;28;20439;-70
2021/08/09 01:20:52;;;;;;;6.97;4.70;;;;;;;17.30;60.74;100901.25;5072090;28;20444;-70
2021/08/09 01:23:34;;;;;;;6.40;4.77;;;;;;;17.57;60.02;100899.09;5059318;28;20472;-69
2021/08/09 01:26:06;;;;;;;7.30;4.63;;;;;;;17.25;60.82;100896.06;5060361;28;20439;-69
2021/08/09 01:28:33;;;;;;;5.30;4.80;;;;;;;17.51;60.39;100902.69;5059818;28;20832;-69
2021/08/09 01:30:59;;;;;;;8.73;5.40;;;;;;;17.88;58.78;100904.69;5061707;28;20450;-70
2021/08/09 01:33:26;;;;;;;6.63;4.53;;;;;;;17.66;59.57;100898.94;5060408;28;20427;-69
2021/08/09 01:35:53;;;;;;;5.50;4.70;;;;;;;17.53;60.04;100902.66;5059487;28;20510;-68
2021/08/09 01:38:24;;;;;;;4.83;4.40;;;;;;;17.63;59.22;100904.22;5058986;28;20423;-70
2021/08/09 01:40:50;;;;;;;4.53;4.10;;;;;;;17.58;59.16;100903.47;5054256;28;20512;-70
2021/08/09 01:43:16;;;;;;;7.30;4.63;;;;;;;17.74;59.62;100896.13;5079961;28;20502;-70
2021/08/09 01:45:41;;;;;;;6.87;4.83;;;;;;;17.83;58.93;100901.25;5074789;28;20177;-70
2021/08/09 01:48:09;;;;;;;5.57;4.80;;;;;;;17.91;58.77;100898.47;5060147;28;20181;-71
2021/08/09 01:50:34;;;;;;;6.53;5.00;;;;;;;17.51;59.66;100898.28;5062702;28;20236;-69
2021/08/09 01:53:00;;;;;;;6.13;5.53;;;;;;;17.84;58.55;100897.72;5059576;28;20420;-70
2021/08/09 01:55:25;;;;;;;13.73;5.93;;;;;;;17.77;58.97;100899.59;5059845;28;20189;-70
2021/08/09 01:57:51;;;;;;;5.90;5.30;;;;;;;17.71;58.90;100897.09;5058973;28;20189;-70
2021/08/09 02:00:17;;;;;;;5.10;4.50;;;;;;;17.78;59.03;100890.78;5060788;28;20199;-69
2021/08/09 02:02:43;;;;;;;5.00;4.50;;;;;;;17.64;59.24;100901.59;5060191;28;20173;-68
2021/08/09 02:05:14;;;;;;;4.63;4.23;;;;;;;17.71;59.00;100901.47;5059455;28;20261;-68
2021/08/09 02:07:42;;;;;;;4.77;4.37;;;;;;;17.53;59.75;100907.94;5058806;28;20620;-70
2021/08/09 02:10:12;;;;;;;5.20;4.70;;;;;;;17.03;60.77;100913.94;5071034;28;20479;-69
2021/08/09 02:12:47;;;;;;;6.50;3.93;;;;;;;17.10;60.62;100910.34;5058579;28;20810;-69
2021/08/09 02:15:15;;;;;;;5.10;4.10;;;;;;;17.35;60.04;100915.25;5058738;28;20449;-69
2021/08/09 02:17:47;;;;;;;6.10;4.23;;;;;;;17.26;60.43;100915.38;5058894;28;20467;-69
2021/08/09 02:20:19;;;;;;;5.50;3.90;;;;;;;17.82;58.84;100918.84;5062690;28;20450;-69
2021/08/09 02:22:49;;;;;;;10.53;4.60;;;;;;;18.04;58.22;100929.06;5058363;28;20439;-69
2021/08/09 02:25:17;;;;;;;6.50;4.40;;;;;;;17.71;59.28;100923.47;5061742;28;20813;-69
2021/08/09 02:27:46;;;;;;;5.07;4.57;;;;;;;18.06;58.47;100924.59;5078251;28;20423;-68
2021/08/09 02:30:16;;;;;;;5.87;4.40;;;;;;;17.72;59.17;100927.81;5059588;28;20558;-69
2021/08/09 02:32:42;;;;;;;5.80;4.67;;;;;;;17.40;59.65;100929.22;5061921;28;20450;-68
2021/08/09 02:35:09;;;;;;;5.77;5.10;;;;;;;17.32;60.48;100933.75;5059255;28;20847;-69
2021/08/09 02:37:34;;;;;;;5.63;4.43;;;;;;;17.73;59.39;100936.59;5058931;28;20411;-70
2021/08/09 02:40:00;;;;;;;6.33;5.60;;;;;;;17.86;58.77;100932.88;5058955;28;20416;-69
2021/08/09 02:42:26;;;;;;;7.47;5.10;;;;;;;17.68;59.54;100940.19;5060649;28;20193;-69
2021/08/09 02:44:51;;;;;;;6.50;4.30;;;;;;;17.84;59.41;100932.88;5057530;28;20173;-69
2021/08/09 02:47:19;;;;;;;4.90;4.40;;;;;;;17.38;60.38;100936.28;5058298;28;20258;-69
2021/08/09 02:49:50;;;;;;;8.20;4.63;;;;;;;17.36;60.52;100938.06;5058978;28;20194;-69
2021/08/09 02:52:18;;;;;;;4.80;4.30;;;;;;;17.73;59.49;100936.59;5075426;28;20438;-70
2021/08/09 02:54:45;;;;;;;4.87;4.20;;;;;;;17.46;60.29;100939.66;5078617;28;20426;-69
2021/08/09 02:57:12;;;;;;;6.30;4.60;;;;;;;17.25;61.46;100943.50;5061986;28;20432;-69
2021/08/09 02:59:38;;;;;;;5.90;4.77;;;;;;;17.34;60.81;100937.22;5057764;28;20763;-69
2021/08/09 03:02:06;;;;;;;4.97;4.33;;;;;;;17.38;60.77;100944.16;5059585;28;20419;-69
2021/08/09 03:04:31;;;;;;;8.90;5.90;;;;;;;17.37;61.16;100938.94;5057612;28;20180;-69
2021/08/09 03:06:57;;;;;;;5.70;5.20;;;;;;;17.37;61.21;100928.38;5058426;28;20499;-69
2021/08/09 03:09:22;;;;;;;7.30;5.13;;;;;;;17.71;60.00;100934.00;5058840;28;20193;-70
2021/08/09 03:11:47;;;;;;;7.50;5.10;;;;;;;17.20;61.26;100936.53;5059892;28;20197;-69
2021/08/09 03:14:27;;;;;;;5.27;4.73;;;;;;;17.38;61.08;100938.91;5058398;28;20192;-70
2021/08/09 03:16:52;;;;;;;7.97;4.60;;;;;;;16.97;62.47;100941.25;5057831;28;20555;-69
2021/08/09 03:19:18;;;;;;;6.50;5.00;;;;;;;17.48;61.07;100932.59;5060290;28;20432;-69
2021/08/09 03:21:54;;;;;;;7.30;5.90;;;;;;;17.20;61.62;100926.00;5047918;28;20223;-68
2021/08/09 03:24:20;;;;;;;6.57;5.00;;;;;;;16.90;62.49;100934.34;5057835;28;20220;-69
2021/08/09 03:26:45;;;;;;;6.17;5.17;;;;;;;17.24;61.82;100930.31;5057960;28;20419;-69
2021/08/09 03:29:11;;;;;;;7.23;4.87;;;;;;;16.84;62.90;100935.25;5070607;28;20496;-70
2021/08/09 03:31:36;;;;;;;9.03;5.30;;;;;;;16.86;62.92;100947.50;5064002;28;20196;-69
2021/08/09 03:34:01;;;;;;;8.37;5.30;;;;;;;16.92;62.94;100952.75;5058348;28;20169;-68
2021/08/09 03:36:27;;;;;;;7.47;4.97;;;;;;;16.89;62.56;100948.38;5058752;28;20177;-69
2021/08/09 03:38:52;;;;;;;7.40;4.80;;;;;;;16.81;62.91;100948.44;5077255;28;20490;-69
2021/08/09 03:41:17;;;;;;;8.80;5.13;;;;;;;17.18;62.06;100944.47;5067641;28;20215;-69
2021/08/09 03:43:43;;;;;;;7.70;5.70;;;;;;;17.15;62.04;100947.16;5057770;28;20205;-69
2021/08/09 03:46:10;;;;;;;9.00;5.47;;;;;;;16.89;63.11;100945.75;5057433;28;20547;-69
2021/08/09 03:48:35;;;;;;;6.43;5.53;;;;;;;16.80;63.13;100949.31;5058276;28;20176;-69
2021/08/09 03:51:00;;;;;;;5.87;5.27;;;;;;;16.96;62.77;100949.19;5059306;28;20442;-69
2021/08/09 03:53:25;;;;;;;6.20;5.60;;;;;;;17.04;62.02;100947.31;5058053;28;20192;-70
2021/08/09 03:55:51;;;;;;;7.33;5.90;;;;;;;17.20;61.59;100952.34;5072095;28;20249;-69
2021/08/09 03:58:16;;;;;;;6.57;5.13;;;;;;;16.91;62.80;100948.38;5077911;28;20185;-68
2021/08/09 04:00:41;;;;;;;7.73;5.57;;;;;;;16.82;63.31;100960.72;5069034;28;20227;-69
2021/08/09 04:03:06;;;;;;;6.10;5.27;;;;;;;16.64;63.87;100959.19;5057920;28;20181;-68
2021/08/09 04:05:32;;;;;;;6.10;5.50;;;;;;;17.23;62.36;100960.22;5057621;28;20178;-70
2021/08/09 04:07:57;;;;;;;8.90;5.50;;;;;;;17.45;61.43;100958.97;5057788;28;20173;-69
2021/08/09 04:10:23;;;;;;;6.27;5.33;;;;;;;16.85;62.61;100967.72;5061131;28;20590;-69
2021/08/09 04:12:48;;;;;;;6.97;5.57;;;;;;;16.76;63.33;100966.06;5065077;28;20271;-69
2021/08/09 04:15:13;;;;;;;8.33;5.50;;;;;;;17.02;62.93;100970.16;5077895;28;20184;-70
2021/08/09 04:17:39;;;;;;;7.43;5.20;;;;;;;16.82;63.21;100968.63;5077932;28;20188;-70
2021/08/09 04:20:05;;;;;;;13.50;5.93;;;;;;;17.33;61.86;100965.34;5073292;28;20203;-71
2021/08/09 04:22:30;;;;;;;5.43;4.93;;;;;;;17.69;60.71;100972.69;5058784;28;20190;-68
2021/08/09 04:24:56;;;;;;;8.57;5.10;;;;;;;17.27;61.47;100968.03;5057377;28;20412;-69
2021/08/09 04:27:21;;;;;;;5.90;5.03;;;;;;;16.74;63.58;100988.06;5057367;28;20174;-68
2021/08/09 04:29:46;;;;;;;6.47;5.47;;;;;;;17.29;61.67;100978.56;5057566;28;20484;-69
2021/08/09 04:32:15;;;;;;;5.93;5.37;;;;;;;18.04;59.44;100965.13;5061343;28;20181;-70
2021/08/09 04:34:41;;;;;;;5.60;5.00;;;;;;;18.22;58.76;100971.81;5062314;28;20177;-68
2021/08/09 04:37:06;;;;;;;17.37;5.90;;;;;;;18.81;56.91;100977.69;5061078;28;20486;-69
2021/08/09 04:39:32;;;;;;;7.87;5.17;;;;;;;19.34;55.14;100972.16;5070248;28;20259;-69
2021/08/09 04:41:57;;;;;;;7.37;4.80;;;;;;;20.24;52.71;100964.69;5080937;28;20161;-70
2021/08/09 04:44:22;;;;;;;10.73;6.20;;;;;;;20.37;52.35;100978.44;5068777;28;20173;-69
2021/08/09 04:46:48;;;;;;;5.23;4.73;;;;;;;19.61;53.83;100984.78;5061471;28;20204;-69
2021/08/09 04:49:13;;;;;;;6.87;4.60;;;;;;;19.49;54.58;100989.44;5060888;28;20215;-70
2021/08/09 04:51:38;;;;;;;7.10;4.77;;;;;;;20.47;51.84;100985.25;5061082;28;20189;-69
2021/08/09 04:54:04;;;;;;;8.13;4.53;;;;;;;20.22;52.71;100974.44;5080010;28;20181;-68
2021/08/09 04:56:29;;;;;;;6.67;4.83;;;;;;;21.03;50.17;100987.19;5080871;28;20215;-69
2021/08/09 04:58:54;;;;;;;7.13;5.50;;;;;;;20.99;50.04;100988.19;5097173;28;20206;-70
2021/08/09 05:01:19;;;;;;;8.77;4.90;;;;;;;20.90;49.82;100990.25;5101569;28;20183;-69
2021/08/09 05:03:45;;;;;;;7.10;4.37;;;;;;;;;;5100948;28;20210;-70
2021/08/09 05:06:11;;;;;;;7.00;4.50;;;;;;;21.68;47.38;100986.97;5061979;28;20223;-69
2021/08/09 05:08:37;;;;;;;6.70;4.00;;;;;;;21.99;47.55;100991.28;5061069;28;20204;-68
2021/08/09 05:11:02;;;;;;;5.53;4.30;;;;;;;21.45;48.87;100993.84;5060529;28;20714;-70
2021/08/09 05:13:27;;;;;;;5.30;4.23;;;;;;;21.64;48.10;100988.84;5060337;28;20169;-69
2021/08/09 05:15:53;;;;;;;6.67;4.30;;;;;;;20.62;50.55;101006.88;5060814;28;20268;-69
2021/08/09 05:18:18;;;;;;;8.43;4.50;;;;;;;19.96;53.10;101004.25;5060153;28;20328;-68
2021/08/09 05:20:45;;;;;;;6.10;5.00;;;;;;;19.99;52.79;101001.50;5069581;28;20236;-69
2021/08/09 05:23:10;;;;;;;6.20;4.83;;;;;;;19.32;54.88;101011.00;5057168;28;20226;-69
2021/08/09 05:25:36;;;;;;;7.60;5.10;;;;;;;18.89;56.43;101021.59;5068141;28;20411;-71
2021/08/09 05:28:01;;;;;;;6.67;4.67;;;;;;;18.63;56.90;101017.66;5072255;28;20177;-68
2021/08/09 05:30:26;;;;;;;4.90;4.40;;;;;;;19.96;54.06;101012.19;5071001;28;20205;-69
2021/08/09 05:32:52;;;;;;;9.80;4.73;;;;;;;21.15;49.53;101001.84;5080027;28;20180;-70
2021/08/09 05:35:17;;;;;;;6.97;4.47;;;;;;;21.59;48.44;101004.06;5079735;28;20203;-70
2021/08/09 05:37:42;;;;;;;4.77;4.27;;;;;;;21.76;47.69;101013.25;5076470;28;20176;-69
2021/08/09 05:40:08;;;;;;;6.90;4.03;;;;;;;21.57;49.11;101016.50;5079431;28;20626;-70
2021/08/09 05:42:34;;;;;;;8.03;4.13;;;;;;;19.35;54.17;101021.50;5072182;28;20170;-70
2021/08/09 05:44:59;;;;;;;4.67;3.83;;;;;;;19.42;54.71;101016.06;5062366;28;20683;-69
2021/08/09 05:47:24;;;;;;;9.13;4.30;;;;;;;19.30;54.72;101033.94;5061635;28;20180;-69
2021/08/09 05:49:50;;;;;;;10.57;4.63;;;;;;;21.76;48.88;101015.91;5065189;28;20197;-70
2021/08/09 05:52:25;;;;;;;7.37;4.03;;;;;;;22.95;45.96;101010.00;5059766;28;20192;-69
2021/08/09 05:54:51;;;;;;;7.43;4.00;;;;;;;23.10;45.34;101008.53;5087589;28;20187;-70
2021/08/09 05:57:17;;;;;;;5.73;4.00;;;;;;;24.15;42.64;100998.16;5087420;28;20472;-70
2021/08/09 05:59:45;;;;;;;7.40;3.83;;;;;;;24.81;41.31;101000.56;5059615;28;20882;-70
2021/08/09 06:02:11;;;;;;;6.47;4.20;;;;;;;25.42;40.26;100998.66;5068722;28;20189;-70
2021/08/09 06:04:36;;;;;;;5.90;4.87;;;;;;;24.78;41.35;101000.72;5059117;28;20412;-70
2021/08/09 06:07:02;;;;;;;7.20;3.77;;;;;;;24.76;40.79;101002.59;5059348;28;20169;-71
2021/08/09 06:09:27;;;;;;;5.03;3.57;;;;;;;25.11;40.30;101002.75;5062970;28;20207;-71
2021/08/09 06:11:52;;;;;;;4.83;3.80;;;;;;;25.25;40.36;101004.78;5069940;28;20173;-70
2021/08/09 06:14:17;;;;;;;7.70;4.10;;;;;;;24.52;41.13;101005.41;5065988;28;20185;-70
2021/08/09 06:16:43;;;;;;;5.53;3.77;;;;;;;25.44;39.83;101002.13;5079344;28;20169;-71
2021/08/09 06:19:08;;;;;;;6.27;5.10;;;;;;;25.60;39.69;101009.34;5075180;28;20462;-70
2021/08/09 06:21:33;;;;;;;6.67;3.93;;;;;;;26.19;37.94;101002.81;5064955;28;20196;-70
2021/08/09 06:23:59;;;;;;;5.07;3.60;;;;;;;25.21;39.90;100993.38;5059805;28;20461;-73
2021/08/09 06:26:24;;;;;;;5.83;3.70;;;;;;;24.55;41.52;101005.25;5061457;28;20453;-72
2021/08/09 06:28:50;;;;;;;5.77;5.17;;;;;;;25.22;40.17;100997.78;5078680;28;20169;-70
2021/08/09 06:31:15;;;;;;;4.83;3.53;;;;;;;24.54;41.30;101002.66;5078619;28;20169;-71
2021/08/09 06:33:40;;;;;;;7.40;4.30;;;;;;;24.91;41.01;101000.16;5078686;28;20179;-71
2021/08/09 06:36:06;;;;;;;5.77;4.00;;;;;;;25.36;40.24;101004.28;5071490;28;20194;-72
2021/08/09 06:38:31;;;;;;;6.83;4.00;;;;;;;24.94;41.07;101006.22;5078447;28;20161;-72
2021/08/09 06:40:56;;;;;;;6.17;4.30;;;;;;;23.71;43.92;101007.06;5069048;28;20185;-70
2021/08/09 06:43:21;;;;;;;7.03;4.37;;;;;;;24.02;43.04;101014.66;5058790;28;20441;-71
2021/08/09 06:45:47;;;;;;;6.67;4.20;;;;;;;23.10;44.74;101020.97;5078495;28;20176;-70
2021/08/09 06:48:12;;;;;;;7.87;4.13;;;;;;;23.67;44.02;101021.44;5078598;28;20181;-70
2021/08/09 06:50:41;;;;;;;5.43;3.80;;;;;;;24.10;42.83;101019.66;5078601;28;20621;-69
2021/08/09 06:53:07;;;;;;;5.03;3.50;;;;;;;25.49;40.07;101015.22;5068739;28;20429;-70
2021/08/09 06:55:32;;;;;;;7.77;4.70;;;;;;;25.88;39.47;101019.53;5058493;28;20530;-69
2021/08/09 06:57:58;;;;;;;6.37;3.80;;;;;;;24.17;43.21;101023.78;5062028;28;20197;-70
2021/08/09 07:00:23;;;;;;;6.10;4.20;;;;;;;22.60;46.73;101033.44;5067313;28;20173;-69
2021/08/09 07:02:48;;;;;;;7.67;3.90;;;;;;;23.44;45.35;101025.88;5084077;28;20438;-69
2021/08/09 07:05:14;;;;;;;6.00;4.53;;;;;;;24.14;43.40;101020.38;5082876;28;20169;-70
2021/08/09 07:07:41;;;;;;;7.00;3.90;;;;;;;24.23;42.98;101019.13;5066500;28;20188;-70
2021/08/09 07:10:06;;;;;;;6.70;4.17;;;;;;;23.97;43.57;101021.13;5058875;28;20209;-69
2021/08/09 07:12:31;;;;;;;5.97;4.77;;;;;;;23.24;45.56;101025.81;5058417;28;20685;-70
2021/08/09 07:14:57;;;;;;;8.13;4.00;;;;;;;22.75;46.43;101034.66;5057937;28;20188;-69
2021/08/09 07:17:22;;;;;;;5.60;4.47;;;;;;;22.54;47.47;101023.91;5057193;28;20188;-69
2021/08/09 07:19:47;;;;;;;5.70;4.40;;;;;;;21.13;51.00;101030.19;5058255;28;20180;-70
2021/08/09 07:22:13;;;;;;;7.63;4.50;;;;;;;21.09;51.45;101033.84;5069913;28;20177;-71
2021/08/09 07:24:38;;;;;;;6.23;4.53;;;;;;;21.32;50.70;101037.59;5082462;28;20267;-73
2021/08/09 07:27:04;;;;;;;6.60;4.57;;;;;;;21.17;50.99;101029.16;5073169;28;20291;-72
2021/08/09 07:29:31;;;;;;;8.50;4.20;;;;;;;21.06;51.90;101038.38;5060521;28;20224;-70
2021/08/09 07:31:56;;;;;;;7.73;4.80;;;;;;;20.91;52.34;101035.25;5059970;28;20227;-70
2021/08/09 07:34:22;;;;;;;6.57;4.83;;;;;;;21.36;51.13;101031.28;5058708;28;20435;-70
2021/08/09 07:36:47;;;;;;;8.87;5.10;;;;;;;21.23;51.54;101035.22;5060119;28;20186;-70
2021/08/09 07:39:12;;;;;;;6.83;4.60;;;;;;;21.56;50.50;101036.00;5057734;28;20504;-72
2021/08/09 07:41:38;;;;;;;8.17;5.00;;;;;;;21.51;51.10;101030.81;5058151;28;20600;-70
2021/08/09 07:44:03;;;;;;;5.87;4.50;;;;;;;21.91;49.96;101038.44;5065795;28;20181;-71
2021/08/09 07:46:29;;;;;;;6.30;4.57;;;;;;;22.29;48.90;101039.78;5077787;28;20165;-70
2021/08/09 07:48:54;;;;;;;7.67;4.67;;;;;;;22.17;49.14;101042.88;5077344;28;20184;-70
2021/08/09 07:51:20;;;;;;;5.80;4.30;;;;;;;23.05;47.34;101045.06;5074823;28;20203;-70
2021/08/09 07:53:45;;;;;;;9.97;4.20;;;;;;;22.88;47.79;101043.06;5077750;28;20179;-70
2021/08/09 07:56:11;;;;;;;5.90;4.60;;;;;;;23.48;45.63;101040.78;5078088;28;20542;-68
2021/08/09 07:58:36;;;;;;;6.87;4.93;;;;;;;22.42;47.93;101042.03;5070366;28;20264;-74
2021/08/09 08:01:01;;;;;;;9.50;4.60;;;;;;;22.20;48.65;101045.41;5072059;28;20451;-69
2021/08/09 08:03:27;;;;;;;17.43;5.50;;;;;;;22.16;49.00;101051.75;5097978;28;20491;-70
2021/08/09 08:05:52;;;;;;;8.83;4.63;;;;;;;21.87;49.23;101048.28;5083254;28;20185;-69
2021/08/09 08:08:17;;;;;;;6.40;4.57;;;;;;;22.72;47.08;101045.41;5071038;28;20209;-69
2021/08/09 08:10:43;;;;;;;6.30;4.37;;;;;;;23.43;45.40;101044.56;5061746;28;20276;-70
2021/08/09 08:13:08;;;;;;;7.17;4.33;;;;;;;23.87;44.92;101045.44;5061108;28;20188;-71
2021/08/09 08:15:33;;;;;;;7.23;4.60;;;;;;;25.22;41.71;101047.59;5078342;28;20251;-70
2021/08/09 08:17:59;;;;;;;9.07;4.70;;;;;;;23.86;43.88;101054.34;5076115;28;20181;-69
2021/08/09 08:20:24;;;;;;;5.90;4.20;;;;;;;22.73;46.78;101059.56;5071815;28;20178;-69
2021/08/09 08:22:49;;;;;;;7.50;5.10;;;;;;;23.32;46.02;101067.13;5062999;28;20229;-68
2021/08/09 08:25:15;;;;;;;11.97;4.67;;;;;;;24.10;43.59;101059.63;5062280;28;20176;-69
2021/08/09 08:27:40;;;;;;;8.80;4.63;;;;;;;24.70;42.45;101061.53;5061129;28;20602;-69
2021/08/09 08:30:07;;;;;;;7.83;4.33;;;;;;;25.19;41.31;101058.41;5060952;28;20205;-69
2021/08/09 08:32:32;;;;;;;5.83;4.60;;;;;;;25.44;41.08;101063.50;5061193;28;20166;-69
2021/08/09 08:34:59;;;;;;;5.83;4.03;;;;;;;25.95;40.08;101069.06;5075953;28;20446;-69
2021/08/09 08:37:25;;;;;;;6.70;4.50;;;;;;;26.38;39.54;101058.91;5080217;28;20406;-68
2021/08/09 08:39:50;;;;;;;8.83;4.67;;;;;;;25.65;40.83;101060.75;5080823;28;20413;-69
2021/08/09 08:42:18;;;;;;;6.83;5.03;;;;;;;25.07;41.77;101067.84;5080737;28;20184;-69
2021/08/09 08:44:44;;;;;;;7.53;4.70;;;;;;;24.34;43.65;101070.16;5080670;28;20181;-69
2021/08/09 08:47:13;;;;;;;6.60;4.33;;;;;;;24.07;43.05;101062.41;5080946;28;20408;-69
2021/08/09 08:49:38;;;;;;;8.30;4.30;;;;;;;26.89;38.45;101071.44;5079759;28;20454;-69
2021/08/09 08:52:04;;;;;;;7.10;4.80;;;;;;;25.53;40.68;101071.09;5072200;28;20437;-70
2021/08/09 08:54:30;;;;;;;6.27;3.93;;;;;;;25.77;39.80;101077.97;5060846;28;20162;-69
2021/08/09 08:56:55;;;;;;;6.70;4.30;;;;;;;26.71;37.39;101075.94;5060299;28;20768;-68
2021/08/09 08:59:21;;;;;;;6.00;3.97;;;;;;;27.08;37.29;101082.00;5060612;28;20207;-69
2021/08/09 09:01:51;;;;;;;7.00;4.20;;;;;;;26.97;38.01;101085.25;5086924;28;20168;-69
2021/08/09 09:04:22;;;;;;;8.67;4.03;;;;;;;25.98;39.93;101078.69;5097762;28;20796;-70
2021/08/09 09:07:00;;;;;;;4.97;3.87;;;;;;;25.15;41.48;101084.38;5071091;28;20514;-73
2021/08/09 09:09:26;;;;;;;8.27;4.30;;;;;;;23.91;44.51;101094.13;5073434;28;20490;-70
2021/08/09 09:11:51;;;;;;;5.93;3.93;;;;;;;24.48;42.01;101089.09;5067627;28;20852;-70
2021/08/09 09:14:32;;;;;;;8.87;4.67;;;;;;;25.80;39.80;101091.16;5059869;28;20435;-70
2021/08/09 09:16:58;;;;;;;8.40;4.17;;;;;;;25.42;41.04;101081.38;5063449;28;20178;-69
2021/08/09 09:19:32;;;;;;;7.43;4.17;;;;;;;24.64;42.04;101093.78;5060571;28;20474;-69
2021/08/09 09:21:58;;;;;;;5.90;4.50;;;;;;;24.47;43.10;101083.84;5076666;28;20533;-68
2021/08/09 09:24:25;;;;;;;6.70;4.87;;;;;;;24.36;43.63;101095.81;5076091;28;20818;-69
2021/08/09 09:27:07;;;;;;;9.23;4.70;;;;;;;25.21;41.44;101094.75;5062360;28;20482;-68
2021/08/09 09:29:35;;;;;;;4.70;3.93;;;;;;;26.26;39.16;101096.06;5078259;28;20553;-70
2021/08/09 09:32:15;;;;;;;4.47;3.87;;;;;;;25.77;40.09;101102.84;5059654;28;20412;-73
2021/08/09 09:34:55;;;;;;;6.73;4.10;;;;;;;27.00;37.46;101100.28;5063253;28;20450;-69
2021/08/09 09:37:26;;;;;;;5.37;4.10;;;;;;;26.71;38.21;101106.22;5058753;28;20431;-69
2021/08/09 09:39:52;;;;;;;5.50;3.93;;;;;;;26.20;38.68;101102.59;5059596;28;20415;-69
2021/08/09 09:42:17;;;;;;;8.93;4.30;;;;;;;25.75;40.52;101110.09;5061610;28;20470;-70
2021/08/09 09:44:43;;;;;;;6.40;4.10;;;;;;;26.42;38.58;101106.84;5079900;28;20412;-68
2021/08/09 09:47:23;;;;;;;6.13;3.97;;;;;;;27.18;36.60;101114.47;5075571;28;20166;-70
2021/08/09 09:49:50;;;;;;;5.23;3.33;;;;;;;26.91;35.46;101106.97;5059450;28;20903;-69
2021/08/09 09:52:45;;;;;;;3.73;3.30;;;;;;;26.58;36.95;101113.13;5059490;28;20475;-69
2021/08/09 09:55:13;;;;;;;5.00;3.30;;;;;;;26.56;36.48;101113.22;5063215;28;20695;-71
2021/08/09 09:57:39;;;;;;;5.80;3.70;;;;;;;27.58;34.89;101112.31;5060911;28;20424;-68
2021/08/09 10:00:08;;;;;;;5.43;3.80;;;;;;;27.60;34.37;101120.25;5065876;28;20452;-69
2021/08/09 10:02:33;;;;;;;3.73;3.20;;;;;;;26.17;35.34;101116.97;5098929;28;20441;-69
2021/08/09 10:05:00;;;;;;;6.27;3.30;;;;;;;26.45;35.90;101112.03;5099428;28;20468;-68
2021/08/09 10:07:28;;;;;;;3.90;3.00;;;;;;;26.93;34.36;101122.94;5098790;28;20180;-68
2021/08/09 10:09:54;;;;;;;5.73;3.77;;;;;;;27.53;33.86;101114.38;5091827;28;20510;-69
2021/08/09 10:12:25;;;;;;;4.20;3.40;;;;;;;27.95;33.33;101117.38;5059111;28;20753;-69
2021/08/09 10:14:52;;;;;;;5.67;3.50;;;;;;;28.15;32.43;101114.44;5058869;28;20412;-69
2021/08/09 10:17:18;;;;;;;3.33;3.03;;;;;;;25.61;36.26;101117.88;5067305;28;20437;-69
2021/08/09 10:19:48;;;;;;;3.30;3.00;;;;;;;25.42;36.92;101121.41;5059685;28;20822;-70
2021/08/09 10:22:17;;;;;;;4.70;3.20;;;;;;;25.05;38.30;101121.28;5058939;28;20193;-71
2021/08/09 10:24:43;;;;;;;4.97;3.00;;;;;;;24.73;39.07;101119.19;5059499;28;20466;-70
2021/08/09 10:27:09;;;;;;;3.40;3.10;;;;;;;24.45;39.75;101123.88;5059821;28;20802;-70
2021/08/09 10:30:14;;;;;;;6.40;3.90;;;;;;;25.77;37.67;101132.22;5059130;28;20485;-70
2021/08/09 10:32:44;;;;;;;5.73;3.70;;;;;;;24.89;37.89;101128.25;5058306;28;20184;-71
2021/08/09 10:35:43;;;;;;;6.27;4.30;;;;;;;25.44;37.17;101132.03;5075651;28;20423;-70
2021/08/09 10:38:14;;;;;;;4.87;4.13;;;;;;;25.41;37.58;101132.16;5078400;28;20494;-70
2021/08/09 10:40:39;;;;;;;4.93;3.67;;;;;;;25.48;37.86;101134.50;5077989;28;20431;-70
2021/08/09 10:43:04;;;;;;;4.00;3.60;;;;;;;25.27;37.83;101140.78;5077827;28;20417;-70
2021/08/09 10:45:41;;;;;;;3.90;3.50;;;;;;;25.94;36.54;101141.22;5078304;28;20206;-69
2021/08/09 10:48:10;;;;;;;3.73;3.33;;;;;;;25.53;36.40;101137.81;5065690;28;20173;-70
2021/08/09 10:50:39;;;;;;;8.70;4.17;;;;;;;24.94;37.24;101139.56;5062341;28;20475;-71
2021/08/09 10:53:04;;;;;;;4.13;3.73;;;;;;;25.25;38.00;101138.19;5063393;28;20427;-73
2021/08/09 10:55:32;;;;;;;4.33;3.93;;;;;;;25.44;37.93;101143.59;5057908;28;20430;-69
2021/08/09 10:58:04;;;;;;;4.30;3.43;;;;;;;24.74;38.26;101148.44;5058052;28;20230;-72
2021/08/09 11:00:38;;;;;;;5.73;3.60;;;;;;;25.77;36.24;101142.91;5062683;28;20729;-70
2021/08/09 11:03:05;;;;;;;4.70;3.40;;;;;;;25.81;36.31;101135.63;5069721;28;20438;-70
2021/08/09 11:05:30;;;;;;;3.73;3.30;;;;;;;25.33;37.31;101145.84;5058068;28;20428;-71
2021/08/09 11:08:16;;;;;;;5.07;3.50;;;;;;;24.54;39.14;101150.16;5065222;28;20502;-74
2021/08/09 11:10:50;;;;;;;4.20;3.30;;;;;;;24.59;39.27;101155.28;5077468;28;20243;-75
2021/08/09 11:13:16;;;;;;;5.80;3.47;;;;;;;24.32;40.04;101149.31;5062710;28;20432;-73
2021/08/09 11:16:04;;;;;;;3.97;3.10;;;;;;;23.90;41.37;101145.66;5060079;28;20789;-71
2021/08/09 11:18:31;;;;;;;5.60;3.67;;;;;;;24.17;41.44;101143.66;5057846;28;20174;-72
2021/08/09 11:21:07;;;;;;;5.00;3.40;;;;;;;24.59;39.96;101139.28;5061839;28;20535;-72
2021/08/09 11:23:39;;;;;;;3.70;3.40;;;;;;;24.55;40.54;101148.34;5057865;28;20475;-72
2021/08/09 11:26:05;;;;;;;6.50;3.10;;;;;;;24.90;39.11;101153.97;5056701;28;20439;-73
2021/08/09 11:28:31;;;;;;;5.40;3.30;;;;;;;24.26;39.94;101146.88;5059210;28;20445;-74